sensor_id;sensor_type;location;lat;lon;timestamp;P1;durP1;ratioP1;P2;durP2;ratioP2
22318;SDS011;11327;52.334;9.506;2023-02-25T00:00:28;13.83;;;2.72;;
22318;SDS011;11327;52.334;9.506;2023-02-25T00:03:54;13.72;;;2.42;;
22318;SDS011;11327;52.334;9.506;2023-02-25T00:07:15;20.43;;;2.85;;
22318;SDS011;11327;52.334;9.506;2023-02-25T00:10:35;18.30;;;3.12;;
22318;SDS011;11327;52.334;9.506;2023-02-25T00:13:56;12.63;;;2.20;;
22318;SDS011;11327;52.334;9.506;2023-02-25T00:17:17;18.07;;;2.60;;
22318;SDS011;11327;52.334;9.506;2023-02-25T00:20:38;19.30;;;3.00;;
22318;SDS011;11327;52.334;9.506;2023-02-25T00:24:00;14.65;;;2.92;;
22318;SDS011;11327;52.334;9.506;2023-02-25T00:27:21;16.85;;;2.92;;
22318;SDS011;11327;52.334;9.506;2023-02-25T00:30:43;18.92;;;2.80;;
22318;SDS011;11327;52.334;9.506;2023-02-25T00:34:03;9.38;;;2.42;;
22318;SDS011;11327;52.334;9.506;2023-02-25T00:37:24;11.95;;;2.52;;
22318;SDS011;11327;52.334;9.506;2023-02-25T00:40:45;16.97;;;2.75;;
22318;SDS011;11327;52.334;9.506;2023-02-25T00:44:06;16.40;;;2.87;;
22318;SDS011;11327;52.334;9.506;2023-02-25T00:47:27;18.17;;;3.12;;
22318;SDS011;11327;52.334;9.506;2023-02-25T00:50:47;14.78;;;2.98;;
22318;SDS011;11327;52.334;9.506;2023-02-25T00:54:08;20.50;;;3.52;;
22318;SDS011;11327;52.334;9.506;2023-02-25T00:57:29;13.83;;;2.75;;
22318;SDS011;11327;52.334;9.506;2023-02-25T01:00:50;15.98;;;3.15;;
22318;SDS011;11327;52.334;9.506;2023-02-25T01:04:10;14.53;;;2.62;;
22318;SDS011;11327;52.334;9.506;2023-02-25T01:07:31;19.50;;;3.20;;
22318;SDS011;11327;52.334;9.506;2023-02-25T01:10:52;15.72;;;2.87;;
22318;SDS011;11327;52.334;9.506;2023-02-25T01:14:14;11.60;;;2.90;;
22318;SDS011;11327;52.334;9.506;2023-02-25T01:17:40;19.00;;;2.83;;
22318;SDS011;11327;52.334;9.506;2023-02-25T01:21:00;12.98;;;2.40;;
22318;SDS011;11327;52.334;9.506;2023-02-25T01:24:22;17.48;;;2.75;;
22318;SDS011;11327;52.334;9.506;2023-02-25T01:27:45;17.62;;;2.80;;
22318;SDS011;11327;52.334;9.506;2023-02-25T01:31:06;16.02;;;2.85;;
22318;SDS011;11327;52.334;9.506;2023-02-25T01:34:29;16.00;;;2.98;;
22318;SDS011;11327;52.334;9.506;2023-02-25T01:37:51;15.18;;;3.05;;
22318;SDS011;11327;52.334;9.506;2023-02-25T01:41:12;13.93;;;2.92;;
22318;SDS011;11327;52.334;9.506;2023-02-25T01:44:33;15.48;;;2.67;;
22318;SDS011;11327;52.334;9.506;2023-02-25T01:48:04;11.85;;;2.30;;
22318;SDS011;11327;52.334;9.506;2023-02-25T01:51:26;16.95;;;3.15;;
22318;SDS011;11327;52.334;9.506;2023-02-25T01:54:49;13.95;;;2.70;;
22318;SDS011;11327;52.334;9.506;2023-02-25T01:58:12;12.98;;;2.30;;
22318;SDS011;11327;52.334;9.506;2023-02-25T02:01:33;12.23;;;2.50;;
22318;SDS011;11327;52.334;9.506;2023-02-25T02:04:57;14.03;;;2.60;;
22318;SDS011;11327;52.334;9.506;2023-02-25T02:08:18;12.70;;;2.05;;
22318;SDS011;11327;52.334;9.506;2023-02-25T02:11:39;13.15;;;3.22;;
22318;SDS011;11327;52.334;9.506;2023-02-25T02:15:01;10.08;;;1.90;;
22318;SDS011;11327;52.334;9.506;2023-02-25T02:18:25;11.78;;;2.47;;
22318;SDS011;11327;52.334;9.506;2023-02-25T02:21:53;11.53;;;2.40;;
22318;SDS011;11327;52.334;9.506;2023-02-25T02:29:08;10.93;;;2.20;;
22318;SDS011;11327;52.334;9.506;2023-02-25T02:32:32;9.83;;;2.20;;
22318;SDS011;11327;52.334;9.506;2023-02-25T02:36:00;8.35;;;1.98;;
22318;SDS011;11327;52.334;9.506;2023-02-25T02:46:31;6.65;;;1.80;;
22318;SDS011;11327;52.334;9.506;2023-02-25T02:49:56;9.80;;;1.60;;
22318;SDS011;11327;52.334;9.506;2023-02-25T02:53:30;5.37;;;1.32;;
22318;SDS011;11327;52.334;9.506;2023-02-25T02:57:01;5.47;;;1.60;;
22318;SDS011;11327;52.334;9.506;2023-02-25T03:00:24;6.53;;;1.40;;
22318;SDS011;11327;52.334;9.506;2023-02-25T03:03:52;5.00;;;1.40;;
22318;SDS011;11327;52.334;9.506;2023-02-25T03:07:21;9.48;;;1.75;;
22318;SDS011;11327;52.334;9.506;2023-02-25T03:10:43;8.88;;;1.32;;
22318;SDS011;11327;52.334;9.506;2023-02-25T03:14:04;11.75;;;1.60;;
22318;SDS011;11327;52.334;9.506;2023-02-25T03:17:28;8.35;;;1.37;;
22318;SDS011;11327;52.334;9.506;2023-02-25T03:20:51;10.28;;;1.80;;
22318;SDS011;11327;52.334;9.506;2023-02-25T03:24:19;11.55;;;1.82;;
22318;SDS011;11327;52.334;9.506;2023-02-25T03:27:41;8.63;;;1.32;;
22318;SDS011;11327;52.334;9.506;2023-02-25T03:34:32;7.45;;;1.45;;
22318;SDS011;11327;52.334;9.506;2023-02-25T03:37:59;9.48;;;1.70;;
22318;SDS011;11327;52.334;9.506;2023-02-25T03:41:27;8.30;;;1.50;;
22318;SDS011;11327;52.334;9.506;2023-02-25T03:44:51;7.80;;;1.75;;
22318;SDS011;11327;52.334;9.506;2023-02-25T03:48:14;7.05;;;2.10;;
22318;SDS011;11327;52.334;9.506;2023-02-25T03:51:38;7.17;;;1.50;;
22318;SDS011;11327;52.334;9.506;2023-02-25T03:55:00;7.33;;;1.67;;
22318;SDS011;11327;52.334;9.506;2023-02-25T03:58:22;6.58;;;1.40;;
22318;SDS011;11327;52.334;9.506;2023-02-25T04:01:45;7.05;;;1.32;;
22318;SDS011;11327;52.334;9.506;2023-02-25T04:05:08;7.35;;;1.75;;
22318;SDS011;11327;52.334;9.506;2023-02-25T04:08:30;10.23;;;1.62;;
22318;SDS011;11327;52.334;9.506;2023-02-25T04:11:50;11.12;;;1.65;;
22318;SDS011;11327;52.334;9.506;2023-02-25T04:15:13;7.47;;;1.52;;
22318;SDS011;11327;52.334;9.506;2023-02-25T04:18:34;7.55;;;1.60;;
22318;SDS011;11327;52.334;9.506;2023-02-25T04:21:54;6.95;;;1.30;;
22318;SDS011;11327;52.334;9.506;2023-02-25T04:25:15;9.50;;;1.57;;
22318;SDS011;11327;52.334;9.506;2023-02-25T04:28:36;7.65;;;1.50;;
22318;SDS011;11327;52.334;9.506;2023-02-25T04:31:56;8.03;;;1.20;;
22318;SDS011;11327;52.334;9.506;2023-02-25T04:35:17;8.13;;;1.50;;
22318;SDS011;11327;52.334;9.506;2023-02-25T04:38:38;9.83;;;1.90;;
22318;SDS011;11327;52.334;9.506;2023-02-25T04:41:59;7.62;;;1.22;;
22318;SDS011;11327;52.334;9.506;2023-02-25T04:45:19;7.65;;;1.42;;
22318;SDS011;11327;52.334;9.506;2023-02-25T04:48:42;8.28;;;1.12;;
22318;SDS011;11327;52.334;9.506;2023-02-25T04:52:03;7.45;;;1.45;;
22318;SDS011;11327;52.334;9.506;2023-02-25T04:55:23;6.08;;;1.40;;
22318;SDS011;11327;52.334;9.506;2023-02-25T04:58:44;7.12;;;1.85;;
22318;SDS011;11327;52.334;9.506;2023-02-25T05:02:06;8.93;;;1.85;;
22318;SDS011;11327;52.334;9.506;2023-02-25T05:05:27;10.93;;;1.90;;
22318;SDS011;11327;52.334;9.506;2023-02-25T05:08:48;5.80;;;1.60;;
22318;SDS011;11327;52.334;9.506;2023-02-25T05:12:10;5.72;;;1.30;;
22318;SDS011;11327;52.334;9.506;2023-02-25T05:15:30;8.35;;;1.47;;
22318;SDS011;11327;52.334;9.506;2023-02-25T05:18:51;8.20;;;1.50;;
22318;SDS011;11327;52.334;9.506;2023-02-25T05:22:12;9.03;;;1.67;;
22318;SDS011;11327;52.334;9.506;2023-02-25T05:25:33;9.40;;;1.17;;
22318;SDS011;11327;52.334;9.506;2023-02-25T05:28:54;10.38;;;1.87;;
22318;SDS011;11327;52.334;9.506;2023-02-25T05:32:16;7.00;;;1.20;;
22318;SDS011;11327;52.334;9.506;2023-02-25T05:35:38;7.37;;;1.40;;
22318;SDS011;11327;52.334;9.506;2023-02-25T05:39:00;4.62;;;1.20;;
22318;SDS011;11327;52.334;9.506;2023-02-25T05:42:22;5.42;;;1.37;;
22318;SDS011;11327;52.334;9.506;2023-02-25T05:45:43;4.80;;;1.05;;
22318;SDS011;11327;52.334;9.506;2023-02-25T05:49:04;5.28;;;1.10;;
22318;SDS011;11327;52.334;9.506;2023-02-25T05:52:24;5.05;;;1.22;;
22318;SDS011;11327;52.334;9.506;2023-02-25T05:55:45;5.28;;;1.20;;
22318;SDS011;11327;52.334;9.506;2023-02-25T05:59:06;7.45;;;1.30;;
22318;SDS011;11327;52.334;9.506;2023-02-25T06:02:27;7.15;;;1.12;;
22318;SDS011;11327;52.334;9.506;2023-02-25T06:05:47;10.00;;;1.98;;
22318;SDS011;11327;52.334;9.506;2023-02-25T06:09:08;4.08;;;1.00;;
22318;SDS011;11327;52.334;9.506;2023-02-25T06:12:31;6.15;;;1.17;;
22318;SDS011;11327;52.334;9.506;2023-02-25T06:15:53;5.40;;;1.10;;
22318;SDS011;11327;52.334;9.506;2023-02-25T06:19:14;3.65;;;1.05;;
22318;SDS011;11327;52.334;9.506;2023-02-25T06:22:36;4.72;;;0.80;;
22318;SDS011;11327;52.334;9.506;2023-02-25T06:25:57;3.33;;;1.10;;
22318;SDS011;11327;52.334;9.506;2023-02-25T06:29:18;5.05;;;1.10;;
22318;SDS011;11327;52.334;9.506;2023-02-25T06:32:39;3.67;;;0.90;;
22318;SDS011;11327;52.334;9.506;2023-02-25T06:36:00;5.08;;;1.00;;
22318;SDS011;11327;52.334;9.506;2023-02-25T06:39:20;6.75;;;1.17;;
22318;SDS011;11327;52.334;9.506;2023-02-25T06:42:41;4.78;;;0.82;;
22318;SDS011;11327;52.334;9.506;2023-02-25T06:46:03;5.58;;;0.80;;
22318;SDS011;11327;52.334;9.506;2023-02-25T06:49:25;3.00;;;0.70;;
22318;SDS011;11327;52.334;9.506;2023-02-25T06:52:46;4.67;;;0.70;;
22318;SDS011;11327;52.334;9.506;2023-02-25T06:56:06;2.08;;;0.57;;
22318;SDS011;11327;52.334;9.506;2023-02-25T06:59:28;2.52;;;0.60;;
22318;SDS011;11327;52.334;9.506;2023-02-25T07:02:49;1.62;;;0.50;;
22318;SDS011;11327;52.334;9.506;2023-02-25T07:06:10;2.52;;;0.60;;
22318;SDS011;11327;52.334;9.506;2023-02-25T07:09:31;3.02;;;0.50;;
22318;SDS011;11327;52.334;9.506;2023-02-25T07:12:52;3.02;;;0.70;;
22318;SDS011;11327;52.334;9.506;2023-02-25T07:16:13;1.52;;;0.40;;
22318;SDS011;11327;52.334;9.506;2023-02-25T07:19:34;3.08;;;0.50;;
22318;SDS011;11327;52.334;9.506;2023-02-25T07:22:55;4.35;;;0.70;;
22318;SDS011;11327;52.334;9.506;2023-02-25T07:26:16;2.77;;;0.60;;
22318;SDS011;11327;52.334;9.506;2023-02-25T07:29:37;3.22;;;0.60;;
22318;SDS011;11327;52.334;9.506;2023-02-25T07:32:58;1.37;;;0.70;;
22318;SDS011;11327;52.334;9.506;2023-02-25T07:36:19;3.65;;;0.60;;
22318;SDS011;11327;52.334;9.506;2023-02-25T07:39:40;4.45;;;1.00;;
22318;SDS011;11327;52.334;9.506;2023-02-25T07:43:00;2.83;;;0.70;;
22318;SDS011;11327;52.334;9.506;2023-02-25T07:46:22;4.75;;;0.75;;
22318;SDS011;11327;52.334;9.506;2023-02-25T07:49:43;3.55;;;0.90;;
22318;SDS011;11327;52.334;9.506;2023-02-25T07:53:04;5.12;;;0.80;;
22318;SDS011;11327;52.334;9.506;2023-02-25T07:56:25;6.47;;;0.98;;
22318;SDS011;11327;52.334;9.506;2023-02-25T07:59:47;2.37;;;0.90;;
22318;SDS011;11327;52.334;9.506;2023-02-25T08:03:08;5.97;;;1.12;;
22318;SDS011;11327;52.334;9.506;2023-02-25T08:06:29;2.22;;;0.78;;
22318;SDS011;11327;52.334;9.506;2023-02-25T08:09:50;2.65;;;0.82;;
22318;SDS011;11327;52.334;9.506;2023-02-25T08:13:10;4.55;;;0.80;;
22318;SDS011;11327;52.334;9.506;2023-02-25T08:16:32;2.55;;;0.80;;
22318;SDS011;11327;52.334;9.506;2023-02-25T08:19:53;3.50;;;1.00;;
22318;SDS011;11327;52.334;9.506;2023-02-25T08:23:14;2.90;;;1.00;;
22318;SDS011;11327;52.334;9.506;2023-02-25T08:26:34;6.53;;;1.20;;
22318;SDS011;11327;52.334;9.506;2023-02-25T08:29:56;4.85;;;0.80;;
22318;SDS011;11327;52.334;9.506;2023-02-25T08:33:17;3.17;;;0.88;;
22318;SDS011;11327;52.334;9.506;2023-02-25T08:36:38;6.33;;;0.90;;
22318;SDS011;11327;52.334;9.506;2023-02-25T08:39:59;4.30;;;0.72;;
22318;SDS011;11327;52.334;9.506;2023-02-25T08:43:20;1.25;;;0.70;;
22318;SDS011;11327;52.334;9.506;2023-02-25T08:46:40;3.72;;;0.68;;
22318;SDS011;11327;52.334;9.506;2023-02-25T08:50:01;2.50;;;0.80;;
22318;SDS011;11327;52.334;9.506;2023-02-25T08:53:24;1.75;;;0.72;;
22318;SDS011;11327;52.334;9.506;2023-02-25T08:56:45;3.60;;;0.80;;
22318;SDS011;11327;52.334;9.506;2023-02-25T09:00:07;2.85;;;0.60;;
22318;SDS011;11327;52.334;9.506;2023-02-25T09:03:30;2.00;;;0.60;;
22318;SDS011;11327;52.334;9.506;2023-02-25T09:06:51;3.67;;;0.70;;
22318;SDS011;11327;52.334;9.506;2023-02-25T09:10:13;3.52;;;0.80;;
22318;SDS011;11327;52.334;9.506;2023-02-25T09:13:34;3.17;;;0.90;;
22318;SDS011;11327;52.334;9.506;2023-02-25T09:16:54;2.05;;;0.72;;
22318;SDS011;11327;52.334;9.506;2023-02-25T09:20:15;2.98;;;0.80;;
22318;SDS011;11327;52.334;9.506;2023-02-25T09:23:37;3.52;;;0.80;;
22318;SDS011;11327;52.334;9.506;2023-02-25T09:27:01;3.85;;;0.75;;
22318;SDS011;11327;52.334;9.506;2023-02-25T09:30:27;1.90;;;0.95;;
22318;SDS011;11327;52.334;9.506;2023-02-25T09:33:47;1.85;;;0.93;;
22318;SDS011;11327;52.334;9.506;2023-02-25T09:37:08;2.60;;;0.60;;
22318;SDS011;11327;52.334;9.506;2023-02-25T09:40:31;3.83;;;1.02;;
22318;SDS011;11327;52.334;9.506;2023-02-25T09:44:02;3.72;;;1.00;;
22318;SDS011;11327;52.334;9.506;2023-02-25T09:51:02;3.33;;;1.20;;
22318;SDS011;11327;52.334;9.506;2023-02-25T09:54:29;2.87;;;0.72;;
22318;SDS011;11327;52.334;9.506;2023-02-25T10:01:36;2.37;;;0.90;;
22318;SDS011;11327;52.334;9.506;2023-02-25T10:15:51;2.87;;;0.70;;
22318;SDS011;11327;52.334;9.506;2023-02-25T10:19:24;1.87;;;0.65;;
22318;SDS011;11327;52.334;9.506;2023-02-25T10:22:47;2.52;;;0.70;;
22318;SDS011;11327;52.334;9.506;2023-02-25T10:26:27;3.40;;;0.50;;
22318;SDS011;11327;52.334;9.506;2023-02-25T10:29:50;1.07;;;0.40;;
22318;SDS011;11327;52.334;9.506;2023-02-25T10:33:16;1.80;;;0.70;;
22318;SDS011;11327;52.334;9.506;2023-02-25T10:36:42;2.03;;;0.83;;
22318;SDS011;11327;52.334;9.506;2023-02-25T10:40:05;2.05;;;0.82;;
22318;SDS011;11327;52.334;9.506;2023-02-25T10:43:32;1.45;;;0.70;;
22318;SDS011;11327;52.334;9.506;2023-02-25T10:46:54;3.90;;;0.85;;
22318;SDS011;11327;52.334;9.506;2023-02-25T10:57:24;2.83;;;0.80;;
22318;SDS011;11327;52.334;9.506;2023-02-25T11:00:52;1.92;;;0.70;;
22318;SDS011;11327;52.334;9.506;2023-02-25T11:04:14;3.90;;;0.93;;
22318;SDS011;11327;52.334;9.506;2023-02-25T11:07:40;2.40;;;0.70;;
22318;SDS011;11327;52.334;9.506;2023-02-25T11:11:13;1.45;;;0.80;;
22318;SDS011;11327;52.334;9.506;2023-02-25T11:14:27;4.33;;;1.10;;
22318;SDS011;11327;52.334;9.506;2023-02-25T11:17:49;2.92;;;0.72;;
22318;SDS011;11327;52.334;9.506;2023-02-25T11:21:12;1.98;;;0.57;;
22318;SDS011;11327;52.334;9.506;2023-02-25T11:24:35;1.85;;;0.80;;
22318;SDS011;11327;52.334;9.506;2023-02-25T11:27:58;1.62;;;0.82;;
22318;SDS011;11327;52.334;9.506;2023-02-25T11:31:21;2.50;;;0.80;;
22318;SDS011;11327;52.334;9.506;2023-02-25T11:35:27;3.67;;;1.50;;
22318;SDS011;11327;52.334;9.506;2023-02-25T11:38:15;1.77;;;0.90;;
22318;SDS011;11327;52.334;9.506;2023-02-25T11:44:59;4.20;;;1.37;;
22318;SDS011;11327;52.334;9.506;2023-02-25T11:48:26;2.20;;;1.10;;
22318;SDS011;11327;52.334;9.506;2023-02-25T12:13:59;3.10;;;0.90;;
22318;SDS011;11327;52.334;9.506;2023-02-25T12:21:21;3.47;;;0.70;;
22318;SDS011;11327;52.334;9.506;2023-02-25T12:25:01;1.52;;;0.80;;
22318;SDS011;11327;52.334;9.506;2023-02-25T12:50:50;2.27;;;0.70;;
22318;SDS011;11327;52.334;9.506;2023-02-25T12:58:04;2.08;;;0.80;;
22318;SDS011;11327;52.334;9.506;2023-02-25T13:01:45;2.70;;;0.80;;
22318;SDS011;11327;52.334;9.506;2023-02-25T13:09:02;1.80;;;0.70;;
22318;SDS011;11327;52.334;9.506;2023-02-25T13:12:50;2.08;;;0.68;;
22318;SDS011;11327;52.334;9.506;2023-02-25T13:16:34;1.35;;;0.60;;
22318;SDS011;11327;52.334;9.506;2023-02-25T13:20:05;1.55;;;0.70;;
22318;SDS011;11327;52.334;9.506;2023-02-25T13:23:32;2.80;;;0.60;;
22318;SDS011;11327;52.334;9.506;2023-02-25T13:27:01;2.67;;;0.57;;
22318;SDS011;11327;52.334;9.506;2023-02-25T13:30:36;4.03;;;0.80;;
22318;SDS011;11327;52.334;9.506;2023-02-25T13:34:05;2.33;;;0.60;;
22318;SDS011;11327;52.334;9.506;2023-02-25T13:38:40;3.02;;;0.70;;
22318;SDS011;11327;52.334;9.506;2023-02-25T13:48:33;5.00;;;1.47;;
22318;SDS011;11327;52.334;9.506;2023-02-25T13:55:36;3.10;;;0.70;;
22318;SDS011;11327;52.334;9.506;2023-02-25T14:07:11;4.05;;;1.00;;
22318;SDS011;11327;52.334;9.506;2023-02-25T14:25:21;3.12;;;0.68;;
22318;SDS011;11327;52.334;9.506;2023-02-25T14:28:52;2.15;;;0.55;;
22318;SDS011;11327;52.334;9.506;2023-02-25T14:36:12;2.33;;;1.20;;
22318;SDS011;11327;52.334;9.506;2023-02-25T14:46:56;3.17;;;0.93;;
22318;SDS011;11327;52.334;9.506;2023-02-25T14:53:54;2.05;;;0.80;;
22318;SDS011;11327;52.334;9.506;2023-02-25T14:57:38;2.85;;;0.98;;
22318;SDS011;11327;52.334;9.506;2023-02-25T15:01:10;3.08;;;1.00;;
22318;SDS011;11327;52.334;9.506;2023-02-25T15:04:54;3.77;;;1.20;;
22318;SDS011;11327;52.334;9.506;2023-02-25T15:20:09;3.00;;;0.90;;
22318;SDS011;11327;52.334;9.506;2023-02-25T15:23:50;4.53;;;1.30;;
22318;SDS011;11327;52.334;9.506;2023-02-25T15:27:30;3.85;;;0.95;;
22318;SDS011;11327;52.334;9.506;2023-02-25T15:34:29;3.55;;;1.10;;
22318;SDS011;11327;52.334;9.506;2023-02-25T15:44:48;4.40;;;1.10;;
22318;SDS011;11327;52.334;9.506;2023-02-25T15:51:43;2.67;;;1.12;;
22318;SDS011;11327;52.334;9.506;2023-02-25T15:55:18;3.27;;;1.27;;
22318;SDS011;11327;52.334;9.506;2023-02-25T16:06:01;5.15;;;1.15;;
22318;SDS011;11327;52.334;9.506;2023-02-25T16:09:24;2.35;;;1.02;;
22318;SDS011;11327;52.334;9.506;2023-02-25T16:12:47;2.98;;;1.67;;
22318;SDS011;11327;52.334;9.506;2023-02-25T16:16:10;4.00;;;1.75;;
22318;SDS011;11327;52.334;9.506;2023-02-25T16:19:32;4.12;;;1.07;;
22318;SDS011;11327;52.334;9.506;2023-02-25T16:22:57;4.45;;;1.30;;
22318;SDS011;11327;52.334;9.506;2023-02-25T16:33:48;2.27;;;1.05;;
22318;SDS011;11327;52.334;9.506;2023-02-25T16:37:14;5.35;;;1.40;;
22318;SDS011;11327;52.334;9.506;2023-02-25T16:40:42;3.62;;;1.10;;
22318;SDS011;11327;52.334;9.506;2023-02-25T16:44:03;2.80;;;1.32;;
22318;SDS011;11327;52.334;9.506;2023-02-25T16:47:28;5.12;;;2.12;;
22318;SDS011;11327;52.334;9.506;2023-02-25T16:50:51;4.75;;;1.50;;
22318;SDS011;11327;52.334;9.506;2023-02-25T16:54:21;3.17;;;1.40;;
22318;SDS011;11327;52.334;9.506;2023-02-25T16:57:40;3.27;;;1.47;;
22318;SDS011;11327;52.334;9.506;2023-02-25T17:01:12;5.10;;;1.90;;
22318;SDS011;11327;52.334;9.506;2023-02-25T17:04:33;5.40;;;1.30;;
22318;SDS011;11327;52.334;9.506;2023-02-25T17:07:57;2.90;;;1.82;;
22318;SDS011;11327;52.334;9.506;2023-02-25T17:11:22;4.55;;;2.00;;
22318;SDS011;11327;52.334;9.506;2023-02-25T17:14:45;3.75;;;1.50;;
22318;SDS011;11327;52.334;9.506;2023-02-25T17:18:09;3.55;;;1.50;;
22318;SDS011;11327;52.334;9.506;2023-02-25T17:21:38;5.33;;;2.40;;
22318;SDS011;11327;52.334;9.506;2023-02-25T17:25:09;2.85;;;1.67;;
22318;SDS011;11327;52.334;9.506;2023-02-25T17:28:31;5.37;;;1.90;;
22318;SDS011;11327;52.334;9.506;2023-02-25T17:31:54;4.65;;;1.70;;
22318;SDS011;11327;52.334;9.506;2023-02-25T17:35:15;4.95;;;1.75;;
22318;SDS011;11327;52.334;9.506;2023-02-25T17:38:36;4.65;;;1.82;;
22318;SDS011;11327;52.334;9.506;2023-02-25T17:41:57;5.10;;;1.90;;
22318;SDS011;11327;52.334;9.506;2023-02-25T17:49:00;5.42;;;2.42;;
22318;SDS011;11327;52.334;9.506;2023-02-25T17:52:24;9.85;;;5.95;;
22318;SDS011;11327;52.334;9.506;2023-02-25T17:55:48;8.43;;;3.25;;
22318;SDS011;11327;52.334;9.506;2023-02-25T18:02:40;10.23;;;3.85;;
22318;SDS011;11327;52.334;9.506;2023-02-25T18:12:50;4.53;;;1.60;;
22318;SDS011;11327;52.334;9.506;2023-02-25T18:19:50;2.83;;;1.15;;
22318;SDS011;11327;52.334;9.506;2023-02-25T18:26:47;3.77;;;1.15;;
22318;SDS011;11327;52.334;9.506;2023-02-25T18:30:16;2.40;;;1.02;;
22318;SDS011;11327;52.334;9.506;2023-02-25T18:33:38;4.80;;;1.50;;
22318;SDS011;11327;52.334;9.506;2023-02-25T18:36:58;6.28;;;2.00;;
22318;SDS011;11327;52.334;9.506;2023-02-25T18:43:52;13.25;;;6.00;;
22318;SDS011;11327;52.334;9.506;2023-02-25T18:47:14;14.40;;;6.67;;
22318;SDS011;11327;52.334;9.506;2023-02-25T18:50:36;14.23;;;6.50;;
22318;SDS011;11327;52.334;9.506;2023-02-25T18:53:59;17.17;;;8.55;;
22318;SDS011;11327;52.334;9.506;2023-02-25T18:57:24;32.08;;;13.95;;
22318;SDS011;11327;52.334;9.506;2023-02-25T19:00:47;26.62;;;11.88;;
22318;SDS011;11327;52.334;9.506;2023-02-25T19:04:14;24.40;;;12.63;;
22318;SDS011;11327;52.334;9.506;2023-02-25T19:07:34;21.68;;;11.55;;
22318;SDS011;11327;52.334;9.506;2023-02-25T19:10:56;20.88;;;9.78;;
22318;SDS011;11327;52.334;9.506;2023-02-25T19:14:16;15.05;;;9.33;;
22318;SDS011;11327;52.334;9.506;2023-02-25T19:17:38;20.17;;;13.25;;
22318;SDS011;11327;52.334;9.506;2023-02-25T19:20:59;22.70;;;13.80;;
22318;SDS011;11327;52.334;9.506;2023-02-25T19:24:20;20.05;;;11.50;;
22318;SDS011;11327;52.334;9.506;2023-02-25T19:27:41;13.75;;;7.47;;
22318;SDS011;11327;52.334;9.506;2023-02-25T19:31:03;12.00;;;5.90;;
22318;SDS011;11327;52.334;9.506;2023-02-25T19:34:25;7.50;;;4.87;;
22318;SDS011;11327;52.334;9.506;2023-02-25T19:37:45;6.00;;;3.70;;
22318;SDS011;11327;52.334;9.506;2023-02-25T19:41:06;8.23;;;3.52;;
22318;SDS011;11327;52.334;9.506;2023-02-25T19:44:30;7.70;;;3.45;;
22318;SDS011;11327;52.334;9.506;2023-02-25T19:47:52;6.78;;;3.92;;
22318;SDS011;11327;52.334;9.506;2023-02-25T19:51:14;6.35;;;3.80;;
22318;SDS011;11327;52.334;9.506;2023-02-25T19:54:34;6.25;;;2.87;;
22318;SDS011;11327;52.334;9.506;2023-02-25T19:57:55;9.80;;;3.87;;
22318;SDS011;11327;52.334;9.506;2023-02-25T20:01:16;7.53;;;3.30;;
22318;SDS011;11327;52.334;9.506;2023-02-25T20:04:37;5.75;;;2.75;;
22318;SDS011;11327;52.334;9.506;2023-02-25T20:07:58;5.45;;;2.85;;
22318;SDS011;11327;52.334;9.506;2023-02-25T20:11:19;6.50;;;2.60;;
22318;SDS011;11327;52.334;9.506;2023-02-25T20:14:42;7.15;;;2.90;;
22318;SDS011;11327;52.334;9.506;2023-02-25T20:18:03;5.75;;;2.60;;
22318;SDS011;11327;52.334;9.506;2023-02-25T20:21:24;5.00;;;2.75;;
22318;SDS011;11327;52.334;9.506;2023-02-25T20:24:46;8.88;;;3.98;;
22318;SDS011;11327;52.334;9.506;2023-02-25T20:28:08;5.28;;;3.00;;
22318;SDS011;11327;52.334;9.506;2023-02-25T20:31:28;7.10;;;3.20;;
22318;SDS011;11327;52.334;9.506;2023-02-25T20:34:50;8.25;;;3.30;;
22318;SDS011;11327;52.334;9.506;2023-02-25T20:38:21;7.83;;;3.30;;
22318;SDS011;11327;52.334;9.506;2023-02-25T20:41:48;7.83;;;3.70;;
22318;SDS011;11327;52.334;9.506;2023-02-25T20:45:12;5.95;;;3.87;;
22318;SDS011;11327;52.334;9.506;2023-02-25T20:48:33;6.22;;;3.25;;
22318;SDS011;11327;52.334;9.506;2023-02-25T20:51:54;6.67;;;3.10;;
22318;SDS011;11327;52.334;9.506;2023-02-25T20:55:15;7.05;;;2.80;;
22318;SDS011;11327;52.334;9.506;2023-02-25T20:58:36;5.22;;;2.40;;
22318;SDS011;11327;52.334;9.506;2023-02-25T21:01:57;6.40;;;2.70;;
22318;SDS011;11327;52.334;9.506;2023-02-25T21:05:19;8.88;;;2.70;;
22318;SDS011;11327;52.334;9.506;2023-02-25T21:08:40;4.58;;;2.50;;
22318;SDS011;11327;52.334;9.506;2023-02-25T21:12:01;4.83;;;2.30;;
22318;SDS011;11327;52.334;9.506;2023-02-25T21:15:22;9.33;;;4.00;;
22318;SDS011;11327;52.334;9.506;2023-02-25T21:18:43;6.12;;;2.90;;
22318;SDS011;11327;52.334;9.506;2023-02-25T21:22:04;4.62;;;1.98;;
22318;SDS011;11327;52.334;9.506;2023-02-25T21:25:26;5.22;;;1.82;;
22318;SDS011;11327;52.334;9.506;2023-02-25T21:28:46;6.42;;;2.05;;
22318;SDS011;11327;52.334;9.506;2023-02-25T21:32:07;3.35;;;1.85;;
22318;SDS011;11327;52.334;9.506;2023-02-25T21:35:28;3.55;;;1.92;;
22318;SDS011;11327;52.334;9.506;2023-02-25T21:38:49;5.10;;;1.87;;
22318;SDS011;11327;52.334;9.506;2023-02-25T21:42:09;5.67;;;2.22;;
22318;SDS011;11327;52.334;9.506;2023-02-25T21:45:30;3.27;;;1.80;;
22318;SDS011;11327;52.334;9.506;2023-02-25T21:48:51;6.20;;;2.30;;
22318;SDS011;11327;52.334;9.506;2023-02-25T21:52:14;5.42;;;2.20;;
22318;SDS011;11327;52.334;9.506;2023-02-25T21:55:36;5.97;;;2.70;;
22318;SDS011;11327;52.334;9.506;2023-02-25T21:58:58;4.58;;;2.42;;
22318;SDS011;11327;52.334;9.506;2023-02-25T22:02:21;3.92;;;2.22;;
22318;SDS011;11327;52.334;9.506;2023-02-25T22:05:43;4.72;;;2.45;;
22318;SDS011;11327;52.334;9.506;2023-02-25T22:09:05;4.87;;;2.70;;
22318;SDS011;11327;52.334;9.506;2023-02-25T22:12:26;6.08;;;2.65;;
22318;SDS011;11327;52.334;9.506;2023-02-25T22:15:47;5.42;;;2.80;;
22318;SDS011;11327;52.334;9.506;2023-02-25T22:19:08;7.80;;;3.25;;
22318;SDS011;11327;52.334;9.506;2023-02-25T22:22:28;5.55;;;3.05;;
22318;SDS011;11327;52.334;9.506;2023-02-25T22:25:49;4.40;;;2.12;;
22318;SDS011;11327;52.334;9.506;2023-02-25T22:29:10;2.83;;;1.85;;
22318;SDS011;11327;52.334;9.506;2023-02-25T22:32:33;3.85;;;1.82;;
22318;SDS011;11327;52.334;9.506;2023-02-25T22:35:57;3.67;;;1.93;;
22318;SDS011;11327;52.334;9.506;2023-02-25T22:39:22;2.98;;;1.60;;
22318;SDS011;11327;52.334;9.506;2023-02-25T22:42:43;5.17;;;1.90;;
22318;SDS011;11327;52.334;9.506;2023-02-25T22:46:04;2.92;;;1.67;;
22318;SDS011;11327;52.334;9.506;2023-02-25T22:49:30;2.77;;;1.50;;
22318;SDS011;11327;52.334;9.506;2023-02-25T22:52:50;5.80;;;1.98;;
22318;SDS011;11327;52.334;9.506;2023-02-25T22:56:11;2.80;;;1.50;;
22318;SDS011;11327;52.334;9.506;2023-02-25T22:59:32;4.33;;;1.77;;
22318;SDS011;11327;52.334;9.506;2023-02-25T23:02:52;5.20;;;1.60;;
22318;SDS011;11327;52.334;9.506;2023-02-25T23:06:14;4.35;;;1.50;;
22318;SDS011;11327;52.334;9.506;2023-02-25T23:09:36;3.67;;;1.50;;
22318;SDS011;11327;52.334;9.506;2023-02-25T23:12:58;3.02;;;1.50;;
22318;SDS011;11327;52.334;9.506;2023-02-25T23:16:23;3.60;;;1.22;;
22318;SDS011;11327;52.334;9.506;2023-02-25T23:19:46;2.65;;;1.40;;
22318;SDS011;11327;52.334;9.506;2023-02-25T23:23:07;3.27;;;1.30;;
22318;SDS011;11327;52.334;9.506;2023-02-25T23:26:30;4.87;;;1.70;;
22318;SDS011;11327;52.334;9.506;2023-02-25T23:29:52;4.37;;;1.67;;
22318;SDS011;11327;52.334;9.506;2023-02-25T23:33:13;3.15;;;1.70;;
22318;SDS011;11327;52.334;9.506;2023-02-25T23:36:36;3.10;;;1.65;;
22318;SDS011;11327;52.334;9.506;2023-02-25T23:39:57;5.30;;;1.90;;
22318;SDS011;11327;52.334;9.506;2023-02-25T23:43:18;4.60;;;1.82;;
22318;SDS011;11327;52.334;9.506;2023-02-25T23:46:39;5.28;;;1.80;;
22318;SDS011;11327;52.334;9.506;2023-02-25T23:50:04;3.30;;;1.35;;
22318;SDS011;11327;52.334;9.506;2023-02-25T23:53:26;4.62;;;1.67;;